TimeCST,TemperatureF,Dew PointF,Humidity,Sea Level PressureIn,VisibilityMPH,Wind Direction,Wind SpeedMPH,Gust SpeedMPH,PrecipitationIn,Events,Conditions,WindDirDegrees,DateUTC
12:15 AM,73.4,62.6,69,29.99,10.0,SW,21.9,28.8,N/A,,Mostly Cloudy,230,2013-12-14 06:15:00
12:35 AM,73.4,62.6,69,29.99,10.0,SW,13.8,27.6,N/A,,Mostly Cloudy,230,2013-12-14 06:35:00
12:55 AM,73.4,64.4,73,29.97,10.0,Variable,9.2,19.6,N/A,,Overcast,0,2013-12-14 06:55:00
1:15 AM,73.4,64.4,73,29.97,-9999.0,SW,19.6,29.9,N/A,,Overcast,230,2013-12-14 07:15:00
1:35 AM,73.4,64.4,73,29.97,10.0,WSW,27.6,35.7,N/A,,Overcast,240,2013-12-14 07:35:00
1:55 AM,73.4,64.4,73,29.96,10.0,SW,23.0,32.2,N/A,,Overcast,230,2013-12-14 07:55:00
2:15 AM,73.4,64.4,73,29.96,10.0,SW,24.2,31.1,N/A,,Overcast,230,2013-12-14 08:15:00
2:35 AM,73.4,64.4,73,29.95,10.0,WSW,24.2,31.1,N/A,,Overcast,240,2013-12-14 08:35:00
2:55 AM,73.4,66.2,78,29.95,10.0,SW,21.9,31.1,N/A,,Scattered Clouds,230,2013-12-14 08:55:00
3:15 AM,73.4,64.4,73,29.94,10.0,WSW,25.3,-,N/A,,Mostly Cloudy,240,2013-12-14 09:15:00
3:35 AM,73.4,66.2,78,29.94,10.0,WSW,21.9,-,N/A,,Mostly Cloudy,240,2013-12-14 09:35:00
3:55 AM,73.4,66.2,78,29.93,10.0,SW,21.9,-,N/A,,Overcast,230,2013-12-14 09:55:00
4:15 AM,73.4,68.0,83,29.93,10.0,SW,20.7,-,N/A,,Mostly Cloudy,230,2013-12-14 10:15:00
4:35 AM,73.4,66.2,78,29.92,10.0,WSW,24.2,-,N/A,,Scattered Clouds,240,2013-12-14 10:35:00
4:55 AM,73.4,68.0,83,29.92,10.0,WSW,23.0,-,N/A,,Partly Cloudy,240,2013-12-14 10:55:00
5:15 AM,73.4,68.0,83,29.91,10.0,WSW,20.7,27.6,N/A,,Clear,240,2013-12-14 11:15:00
5:35 AM,73.4,68.0,83,29.91,10.0,SW,19.6,27.6,N/A,,Clear,230,2013-12-14 11:35:00
5:55 AM,73.4,68.0,83,29.91,10.0,SW,23.0,28.8,N/A,,Scattered Clouds,230,2013-12-14 11:55:00
6:15 AM,73.4,68.0,83,29.91,10.0,WSW,20.7,27.6,N/A,,Scattered Clouds,240,2013-12-14 12:15:00
6:35 AM,73.4,69.8,88,29.91,10.0,SW,18.4,-,N/A,,Mostly Cloudy,230,2013-12-14 12:35:00
6:55 AM,73.4,69.8,88,29.91,10.0,SW,19.6,-,N/A,,Mostly Cloudy,230,2013-12-14 12:55:00
7:15 AM,73.4,69.8,88,29.91,10.0,SW,20.7,-,N/A,,Mostly Cloudy,230,2013-12-14 13:15:00
7:35 AM,73.4,69.8,88,29.91,10.0,SW,17.3,-,N/A,,Partly Cloudy,230,2013-12-14 13:35:00
7:55 AM,73.4,69.8,88,29.91,10.0,SW,19.6,-,N/A,,Partly Cloudy,230,2013-12-14 13:55:00
8:15 AM,73.4,69.8,88,29.92,10.0,WSW,18.4,-,N/A,,Mostly Cloudy,240,2013-12-14 14:15:00
8:35 AM,73.4,69.8,88,29.92,10.0,WSW,18.4,-,N/A,,Mostly Cloudy,250,2013-12-14 14:35:00
8:55 AM,73.4,69.8,88,29.94,10.0,West,16.1,-,N/A,,Mostly Cloudy,260,2013-12-14 14:55:00
9:15 AM,73.4,69.8,88,29.95,10.0,West,19.6,-,N/A,,Mostly Cloudy,270,2013-12-14 15:15:00
9:35 AM,73.4,69.8,88,29.94,-9999.0,West,17.3,-,N/A,,Mostly Cloudy,280,2013-12-14 15:35:00
9:55 AM,73.4,69.8,88,29.94,10.0,West,16.1,-,N/A,,Partly Cloudy,270,2013-12-14 15:55:00
10:15 AM,73.4,69.8,88,29.94,10.0,West,17.3,-,N/A,,Clear,270,2013-12-14 16:15:00
10:35 AM,73.4,69.8,88,29.93,10.0,West,17.3,-,N/A,,Scattered Clouds,280,2013-12-14 16:35:00
10:55 AM,73.4,69.8,88,29.92,10.0,WNW,17.3,-,N/A,,Scattered Clouds,290,2013-12-14 16:55:00
11:15 AM,73.4,69.8,88,29.91,10.0,WNW,17.3,-,N/A,,Partly Cloudy,290,2013-12-14 17:15:00
11:35 AM,73.4,69.8,88,29.90,10.0,WNW,20.7,-,N/A,,Clear,300,2013-12-14 17:35:00
11:55 AM,73.4,69.8,88,29.89,10.0,WNW,19.6,-,N/A,,Clear,290,2013-12-14 17:55:00
12:15 PM,71.6,68.0,88,29.88,10.0,WNW,21.9,-,N/A,,Clear,300,2013-12-14 18:15:00
12:35 PM,71.6,68.0,88,29.87,10.0,NW,21.9,-,N/A,,Clear,310,2013-12-14 18:35:00
12:55 PM,73.4,66.2,78,29.87,10.0,NW,17.3,-,N/A,,Clear,320,2013-12-14 18:55:00
1:15 PM,73.4,66.2,78,29.87,10.0,NW,19.6,-,N/A,,Partly Cloudy,320,2013-12-14 19:15:00
1:35 PM,73.4,66.2,78,29.87,10.0,NW,16.1,-,N/A,,Partly Cloudy,320,2013-12-14 19:35:00
1:55 PM,71.6,66.2,83,29.86,10.0,NNW,16.1,-,N/A,,Partly Cloudy,330,2013-12-14 19:55:00
2:15 PM,71.6,66.2,83,29.87,10.0,NW,15.0,-,N/A,,Clear,320,2013-12-14 20:15:00
2:35 PM,71.6,66.2,83,29.87,10.0,WNW,16.1,-,N/A,,Clear,300,2013-12-14 20:35:00
2:55 PM,71.6,66.2,83,29.87,10.0,NW,12.7,-,N/A,,Clear,310,2013-12-14 20:55:00
3:15 PM,71.6,66.2,83,29.87,10.0,WNW,16.1,-,N/A,,Clear,300,2013-12-14 21:15:00
3:35 PM,71.6,66.2,83,29.87,10.0,NW,15.0,-,N/A,,Scattered Clouds,310,2013-12-14 21:35:00
3:55 PM,71.6,66.2,83,29.87,10.0,NW,15.0,-,N/A,,Scattered Clouds,310,2013-12-14 21:55:00
4:15 PM,69.8,66.2,88,29.87,10.0,NW,13.8,-,N/A,,Partly Cloudy,320,2013-12-14 22:15:00
4:35 PM,69.8,66.2,88,29.88,10.0,NNW,12.7,-,N/A,,Clear,340,2013-12-14 22:35:00
4:55 PM,69.8,66.2,88,29.88,10.0,NNW,11.5,-,N/A,,Clear,330,2013-12-14 22:55:00
5:15 PM,69.8,66.2,88,29.88,10.0,NNW,10.4,-,N/A,,Partly Cloudy,340,2013-12-14 23:15:00
5:35 PM,69.8,66.2,88,29.89,10.0,NW,8.1,-,N/A,,Mostly Cloudy,320,2013-12-14 23:35:00
5:55 PM,69.8,66.2,88,29.90,10.0,NW,10.4,-,N/A,,Overcast,310,2013-12-14 23:55:00
6:15 PM,69.8,66.2,88,29.90,10.0,WNW,8.1,-,N/A,,Overcast,290,2013-12-15 00:15:00
6:35 PM,69.8,66.2,88,29.91,10.0,NW,9.2,-,N/A,,Overcast,310,2013-12-15 00:35:00
6:55 PM,69.8,66.2,88,29.93,10.0,NW,16.1,-,N/A,,Overcast,320,2013-12-15 00:55:00
7:15 PM,68.0,62.6,83,29.93,4.0,North,26.5,-,N/A,,Overcast,360,2013-12-15 01:15:00
7:35 PM,66.2,62.6,88,29.95,4.0,North,18.4,-,N/A,,Mostly Cloudy,360,2013-12-15 01:35:00
7:55 PM,66.2,62.6,88,29.95,10.0,North,13.8,-,N/A,,Overcast,10,2013-12-15 01:55:00
8:15 PM,66.2,62.6,88,29.95,10.0,North,20.7,-,N/A,,Overcast,10,2013-12-15 02:15:00
8:35 PM,66.2,62.6,88,29.95,10.0,North,18.4,-,N/A,,Overcast,10,2013-12-15 02:35:00
8:55 PM,66.2,62.6,88,29.96,10.0,NNE,9.2,16.1,N/A,,Overcast,20,2013-12-15 02:55:00
9:15 PM,68.0,62.6,83,29.96,10.0,NNE,11.5,-,N/A,,Overcast,20,2013-12-15 03:15:00
9:35 PM,68.0,62.6,83,29.96,10.0,North,9.2,-,N/A,,Overcast,10,2013-12-15 03:35:00
9:55 PM,68.0,60.8,78,29.95,10.0,NNE,9.2,-,N/A,,Overcast,20,2013-12-15 03:55:00
10:15 PM,68.0,59.0,73,29.96,10.0,North,9.2,-,N/A,,Overcast,10,2013-12-15 04:15:00
10:35 PM,68.0,59.0,73,29.97,10.0,NNW,12.7,-,N/A,,Overcast,340,2013-12-15 04:35:00
10:55 PM,68.0,53.6,60,29.96,10.0,NNW,13.8,-,N/A,,Overcast,340,2013-12-15 04:55:00
11:15 PM,66.2,59.0,78,29.95,-9999.0,North,18.4,-,N/A,,Overcast,350,2013-12-15 05:15:00
11:35 PM,66.2,55.4,68,29.95,10.0,North,23.0,-,N/A,,Overcast,350,2013-12-15 05:35:00
11:55 PM,62.6,59.0,88,29.96,10.0,North,25.3,-,N/A,,Overcast,350,2013-12-15 05:55:00